createdAt,value
2022-11-10T00:02:08.123Z,152.43
2022-11-10T00:04:53.372Z,144.10
2022-11-10T00:07:39.531Z,141.25
2022-11-10T00:10:25.061Z,149.32
2022-11-10T00:13:10.367Z,152.57
2022-11-10T00:16:16.385Z,135.38
2022-11-10T00:19:01.386Z,139.95
2022-11-10T00:21:46.594Z,149.13
2022-11-10T00:24:31.996Z,145.80
2022-11-10T00:27:17.061Z,139.35
2022-11-10T00:30:03.163Z,140.88
2022-11-10T00:32:48.677Z,143.90
2022-11-10T00:35:34.016Z,142.07
2022-11-10T00:38:19.486Z,132.95
2022-11-10T00:41:04.848Z,145.40
2022-11-10T00:43:50.265Z,135.40
2022-11-10T00:46:35.524Z,145.35
2022-11-10T00:49:20.648Z,151.00
2022-11-10T00:52:05.948Z,143.60
2022-11-10T00:54:51.262Z,142.00
2022-11-10T00:57:36.483Z,138.77
2022-11-10T01:00:21.928Z,141.90
2022-11-10T01:03:07.016Z,133.80
2022-11-10T01:05:52.125Z,150.73
2022-11-10T01:08:38.635Z,137.65
2022-11-10T01:11:27.202Z,142.45
2022-11-10T01:14:12.148Z,143.15
2022-11-10T01:16:57.501Z,139.02
2022-11-10T01:19:42.948Z,141.10
2022-11-10T01:22:28.075Z,139.77
2022-11-10T01:25:13.327Z,149.85
2022-11-10T01:27:58.805Z,140.57
2022-11-10T01:30:43.991Z,149.52
2022-11-10T01:33:29.432Z,143.23
2022-11-10T01:36:14.458Z,147.00
2022-11-10T01:39:01.131Z,148.93
2022-11-10T01:41:46.221Z,137.70
2022-11-10T01:44:31.588Z,136.90
2022-11-10T01:47:16.808Z,148.43
2022-11-10T01:50:02.446Z,138.88
2022-11-10T01:52:50.759Z,146.02
2022-11-10T01:55:41.809Z,146.80
2022-11-10T01:58:33.043Z,144.85
2022-11-10T02:01:18.281Z,136.65
2022-11-10T02:04:07.396Z,141.52
2022-11-10T02:06:54.534Z,136.55
2022-11-10T02:09:39.802Z,145.38
2022-11-10T02:12:37.395Z,137.13
2022-11-10T02:15:23.187Z,139.02
2022-11-10T02:18:08.467Z,131.63
2022-11-10T02:20:54.051Z,145.43
2022-11-10T02:23:39.242Z,131.55
2022-11-10T02:26:27.698Z,145.93
2022-11-10T02:29:13.025Z,153.77
2022-11-10T02:31:58.197Z,135.00
2022-11-10T02:34:43.813Z,134.15
2022-11-10T02:37:28.907Z,139.70
2022-11-10T02:40:14.446Z,132.57
2022-11-10T02:42:59.609Z,132.00
2022-11-10T02:45:45.549Z,142.30
2022-11-10T02:48:30.887Z,137.13
2022-11-10T02:51:16.221Z,137.57
2022-11-10T02:54:01.732Z,140.05
2022-11-10T02:56:47.360Z,140.73
2022-11-10T02:59:32.370Z,147.88
2022-11-10T03:02:17.692Z,146.02
2022-11-10T03:05:02.809Z,146.38
2022-11-10T03:07:59.703Z,134.77
2022-11-10T03:10:44.830Z,136.90
2022-11-10T03:13:45.418Z,139.85
2022-11-10T03:16:36.030Z,129.98
2022-11-10T03:19:21.642Z,144.88
2022-11-10T03:22:07.391Z,143.87
2022-11-10T03:24:52.597Z,130.43
2022-11-10T03:27:38.634Z,141.20
2022-11-10T03:30:23.840Z,127.60
2022-11-10T03:33:09.520Z,129.77
2022-11-10T03:35:54.583Z,139.37
2022-11-10T03:38:39.801Z,142.57
2022-11-10T03:41:25.175Z,139.38
2022-11-10T03:44:10.348Z,142.75
2022-11-10T03:46:55.763Z,137.32
2022-11-10T03:49:41.051Z,136.82
2022-11-10T03:52:26.232Z,141.98
2022-11-10T03:55:14.117Z,140.00
2022-11-10T03:58:03.977Z,133.65
2022-11-10T04:00:48.966Z,139.52
2022-11-10T04:03:34.429Z,141.90
2022-11-10T04:06:38.026Z,139.95
2022-11-10T04:09:23.321Z,141.18
2022-11-10T04:12:27.231Z,139.75
2022-11-10T04:15:31.682Z,134.68
2022-11-10T04:18:25.895Z,131.90
2022-11-10T04:21:12.209Z,140.35
2022-11-10T04:23:57.191Z,140.98
2022-11-10T04:26:44.037Z,127.82
2022-11-10T04:32:14.153Z,133.65
2022-11-10T04:34:59.352Z,132.95
2022-11-10T04:37:46.524Z,130.13
2022-11-10T04:40:31.744Z,140.68
2022-11-10T04:43:16.915Z,139.30
2022-11-10T04:46:03.174Z,131.57
2022-11-10T04:48:48.665Z,143.07
2022-11-10T04:51:36.329Z,134.07
2022-11-10T04:54:21.895Z,142.65
2022-11-10T04:57:06.920Z,134.90
2022-11-10T04:59:52.188Z,133.85
2022-11-10T05:02:39.788Z,128.27
2022-11-10T05:05:24.807Z,135.88
2022-11-10T05:08:11.924Z,135.23
2022-11-10T05:13:42.512Z,139.98
2022-11-10T05:16:27.894Z,142.23
2022-11-10T05:19:12.971Z,132.57
2022-11-10T05:21:58.137Z,129.18
2022-11-10T05:24:43.236Z,137.52
2022-11-10T05:27:29.929Z,141.23
2022-11-10T05:30:15.760Z,142.05
2022-11-10T05:33:01.080Z,131.85
2022-11-10T05:35:49.113Z,135.93
2022-11-10T05:38:37.754Z,132.10
2022-11-10T05:41:27.583Z,136.30
2022-11-10T05:44:12.766Z,139.48
2022-11-10T05:46:58.124Z,137.07
2022-11-10T05:49:43.404Z,137.02
2022-11-10T05:52:29.111Z,138.27
2022-11-10T05:55:14.647Z,132.68
2022-11-10T05:58:00.207Z,141.90
2022-11-10T06:00:45.249Z,146.50
2022-11-10T06:03:30.711Z,139.63
2022-11-10T06:06:15.941Z,134.02
2022-11-10T06:09:01.432Z,134.13
2022-11-10T06:11:46.984Z,136.48
2022-11-10T06:14:32.282Z,143.05
2022-11-10T06:17:18.708Z,147.25
2022-11-10T06:20:04.314Z,141.15
2022-11-10T06:23:04.676Z,138.47
2022-11-10T06:25:50.163Z,153.63
2022-11-10T06:28:35.523Z,144.60
2022-11-10T06:31:20.911Z,138.45
2022-11-10T06:34:06.340Z,136.80
2022-11-10T06:36:51.577Z,138.50
2022-11-10T06:39:36.807Z,133.15
2022-11-10T06:42:22.353Z,157.55
2022-11-10T06:45:08.032Z,134.00
2022-11-10T06:48:08.190Z,148.50
2022-11-10T06:50:53.296Z,148.50
2022-11-10T06:53:38.630Z,142.75
2022-11-10T06:56:23.916Z,138.93
2022-11-10T06:59:11.895Z,149.50
2022-11-10T07:01:57.263Z,141.75
2022-11-10T07:04:45.487Z,151.13
2022-11-10T07:07:30.527Z,149.00
2022-11-10T07:10:16.003Z,159.60
2022-11-10T07:13:02.921Z,148.60
2022-11-10T07:15:48.792Z,142.60
2022-11-10T07:18:34.891Z,146.80
2022-11-10T07:21:20.072Z,148.82
2022-11-10T07:24:05.974Z,135.68
2022-11-10T07:26:51.282Z,139.25
2022-11-10T07:29:36.219Z,147.73
2022-11-10T07:32:21.645Z,156.95
2022-11-10T07:35:07.090Z,155.02
2022-11-10T07:37:52.141Z,143.75
2022-11-10T07:40:38.407Z,141.88
2022-11-10T07:43:25.764Z,148.45
2022-11-10T07:46:11.485Z,138.48
2022-11-10T07:48:56.445Z,138.25
2022-11-10T07:51:42.999Z,144.13
2022-11-10T07:54:27.902Z,151.30
2022-11-10T07:57:13.157Z,146.10
2022-11-10T07:59:58.564Z,134.98
2022-11-10T08:02:43.737Z,140.95
2022-11-10T08:05:29.131Z,146.82
2022-11-10T08:08:14.619Z,150.27
2022-11-10T08:10:59.795Z,140.18
2022-11-10T08:13:45.107Z,142.88
2022-11-10T08:16:30.379Z,153.63
2022-11-10T08:19:15.636Z,143.48
2022-11-10T08:22:00.848Z,137.18
2022-11-10T08:24:46.268Z,144.52
2022-11-10T08:27:31.439Z,163.63
2022-11-10T08:30:16.837Z,146.55
2022-11-10T08:33:05.058Z,159.43
2022-11-10T08:35:51.970Z,153.30
2022-11-10T08:38:37.216Z,148.40
2022-11-10T08:41:22.551Z,150.85
2022-11-10T08:44:10.849Z,147.60
2022-11-10T08:46:56.593Z,139.88
2022-11-10T08:49:41.787Z,148.50
2022-11-10T08:52:27.024Z,141.15
2022-11-10T08:55:12.439Z,146.25
2022-11-10T08:58:03.171Z,146.98
2022-11-10T09:00:48.254Z,151.70
2022-11-10T09:03:33.735Z,146.40
2022-11-10T09:06:18.947Z,158.20
2022-11-10T09:09:04.133Z,160.45
2022-11-10T09:11:49.503Z,162.30
2022-11-10T09:14:34.598Z,154.95
2022-11-10T09:17:19.848Z,148.20
2022-11-10T09:20:06.628Z,164.48
2022-11-10T09:22:51.712Z,153.68
2022-11-10T09:25:38.143Z,152.00
2022-11-10T09:28:23.918Z,160.45
2022-11-10T09:31:09.201Z,156.00
2022-11-10T09:33:54.335Z,149.82
2022-11-10T09:36:40.424Z,149.95
2022-11-10T09:39:25.514Z,153.60
2022-11-10T09:42:25.072Z,151.43
2022-11-10T09:45:22.706Z,144.32
2022-11-10T09:48:17.584Z,153.02
2022-11-10T09:51:12.174Z,145.13
2022-11-10T09:54:02.854Z,145.10
2022-11-10T09:56:48.952Z,149.20
2022-11-10T09:59:36.401Z,152.30
2022-11-10T10:02:44.709Z,145.23
2022-11-10T10:05:42.558Z,149.35
2022-11-10T10:08:40.472Z,151.48
2022-11-10T10:11:54.262Z,173.50
2022-11-10T10:14:52.604Z,180.73
2022-11-10T10:17:42.608Z,155.38
2022-11-10T10:20:39.880Z,146.02
2022-11-10T10:26:53.751Z,147.88
2022-11-10T10:29:49.432Z,155.05
2022-11-10T10:32:34.719Z,151.18
2022-11-10T10:35:20.051Z,152.35
2022-11-10T10:38:12.211Z,151.10
2022-11-10T10:41:03.431Z,156.00
2022-11-10T10:43:51.370Z,145.50
2022-11-10T10:47:01.251Z,147.68
2022-11-10T10:49:46.657Z,149.63
2022-11-10T10:52:32.448Z,160.80
2022-11-10T10:55:18.013Z,157.23
2022-11-10T10:58:20.789Z,152.80
2022-11-10T11:01:15.598Z,159.65
2022-11-10T11:04:05.004Z,160.48
2022-11-10T11:06:58.457Z,175.73
2022-11-10T11:09:44.323Z,156.48
2022-11-10T11:12:33.292Z,151.80
2022-11-10T11:15:29.505Z,159.68
2022-11-10T11:18:17.276Z,155.70
2022-11-10T11:21:17.201Z,145.68
2022-11-10T11:24:24.076Z,147.38
2022-11-10T11:27:18.951Z,148.82
2022-11-10T11:30:19.326Z,150.90
2022-11-10T11:33:09.755Z,157.82
2022-11-10T11:36:19.867Z,163.93
2022-11-10T11:39:11.559Z,167.68
2022-11-10T11:42:09.160Z,164.07
2022-11-10T11:44:57.471Z,150.15
2022-11-10T11:47:50.828Z,159.30
2022-11-10T11:50:54.312Z,151.68
2022-11-10T11:54:01.227Z,148.05
2022-11-10T11:56:49.845Z,159.18
2022-11-10T12:00:04.211Z,158.90
2022-11-10T12:03:17.423Z,156.88
2022-11-10T12:06:14.571Z,154.05
2022-11-10T12:12:13.524Z,154.63
2022-11-10T12:15:02.654Z,151.43
2022-11-10T12:18:12.629Z,154.88
2022-11-10T12:21:06.732Z,147.77
2022-11-10T12:24:16.753Z,208.18
2022-11-10T12:27:14.500Z,167.60
2022-11-10T12:30:06.185Z,157.18
2022-11-10T12:33:00.270Z,165.75
2022-11-10T12:35:46.807Z,165.52
2022-11-10T12:39:00.540Z,178.77
2022-11-10T12:41:52.621Z,168.82
2022-11-10T12:44:54.224Z,172.30
2022-11-10T12:47:43.980Z,168.57
2022-11-10T12:50:44.229Z,165.65
2022-11-10T12:53:32.695Z,162.18
2022-11-10T12:56:21.050Z,173.73
2022-11-10T12:59:21.166Z,156.38
2022-11-10T13:02:22.798Z,161.55
2022-11-10T13:05:13.919Z,169.48
2022-11-10T13:08:19.066Z,167.55
2022-11-10T13:11:12.109Z,160.30
2022-11-10T13:14:00.212Z,177.27
2022-11-10T13:16:55.785Z,166.52
2022-11-10T13:19:40.542Z,157.18
2022-11-10T13:22:40.733Z,168.40
2022-11-10T13:25:38.351Z,160.60
2022-11-10T13:28:48.489Z,174.05
2022-11-10T13:31:33.519Z,163.98
2022-11-10T13:34:18.748Z,157.65
2022-11-10T13:37:35.113Z,159.57
2022-11-10T13:40:29.587Z,159.38
2022-11-10T13:43:14.425Z,171.82
2022-11-10T13:46:02.092Z,166.65
2022-11-10T13:49:24.300Z,172.65
2022-11-10T13:52:20.770Z,163.77
2022-11-10T13:55:21.621Z,162.70
2022-11-10T13:58:18.044Z,153.25
2022-11-10T14:01:29.024Z,165.55
2022-11-10T14:04:41.086Z,168.93
2022-11-10T14:07:31.597Z,157.63
2022-11-10T14:10:23.535Z,171.20
2022-11-10T14:13:17.130Z,166.13
2022-11-10T14:16:02.503Z,184.00
2022-11-10T14:19:03.162Z,178.15
2022-11-10T14:22:02.988Z,169.82
2022-11-10T14:25:01.117Z,170.48
2022-11-10T14:27:46.246Z,173.20
2022-11-10T14:30:33.579Z,166.10
2022-11-10T14:33:19.667Z,160.93
2022-11-10T14:36:09.150Z,172.02
2022-11-10T14:38:54.753Z,168.85
2022-11-10T14:41:47.458Z,161.63
2022-11-10T14:44:34.870Z,166.13
2022-11-10T14:47:25.222Z,163.95
2022-11-10T14:50:13.459Z,160.15
2022-11-10T14:53:14.923Z,160.38
2022-11-10T14:56:02.371Z,173.68
2022-11-10T14:58:49.300Z,168.35
2022-11-10T15:01:37.783Z,165.55
2022-11-10T15:04:28.526Z,189.82
2022-11-10T15:07:14.008Z,179.55
2022-11-10T15:10:17.684Z,165.88
2022-11-10T15:13:10.847Z,163.70
2022-11-10T15:16:28.288Z,157.07
2022-11-10T15:19:56.103Z,159.75
2022-11-10T15:22:41.702Z,152.63
2022-11-10T15:25:40.839Z,169.02
2022-11-10T15:28:32.029Z,159.70
2022-11-10T15:31:28.867Z,160.00
2022-11-10T15:37:31.125Z,158.05
2022-11-10T15:40:49.819Z,151.60
2022-11-10T15:43:34.871Z,161.93
2022-11-10T15:46:24.214Z,151.90
2022-11-10T15:49:24.254Z,149.60
2022-11-10T15:52:16.424Z,147.50
2022-11-10T15:55:01.729Z,149.48
2022-11-10T15:57:46.983Z,156.65
2022-11-10T16:00:32.093Z,148.85
2022-11-10T16:03:20.295Z,151.65
2022-11-10T16:06:05.721Z,148.20
2022-11-10T16:08:50.676Z,145.77
2022-11-10T16:11:36.126Z,146.18
2022-11-10T16:14:21.395Z,147.02
2022-11-10T16:17:09.945Z,149.95
2022-11-10T16:19:55.341Z,151.15
2022-11-10T16:22:40.683Z,159.07
2022-11-10T16:25:27.913Z,158.27
2022-11-10T16:28:17.876Z,152.32
2022-11-10T16:31:02.892Z,147.25
2022-11-10T16:33:49.115Z,153.93
2022-11-10T16:36:34.697Z,167.83
2022-11-10T16:39:20.825Z,163.55
2022-11-10T16:42:05.971Z,161.10
2022-11-10T16:44:51.137Z,160.38
2022-11-10T16:47:36.635Z,162.27
2022-11-10T16:50:33.698Z,167.02
2022-11-10T16:53:23.148Z,162.15
2022-11-10T16:56:16.579Z,168.65
2022-11-10T16:59:02.300Z,161.05
2022-11-10T17:01:48.693Z,173.02
2022-11-10T17:04:33.631Z,163.15
2022-11-10T17:07:24.418Z,161.75
2022-11-10T17:10:15.730Z,154.75
2022-11-10T17:13:01.118Z,154.45
2022-11-10T17:15:47.168Z,175.05
2022-11-10T17:18:35.022Z,170.25
2022-11-10T17:21:21.707Z,167.60
2022-11-10T17:24:07.839Z,158.30
2022-11-10T17:26:52.959Z,157.05
2022-11-10T17:29:38.174Z,158.70
2022-11-10T17:32:43.240Z,158.45
2022-11-10T17:35:28.581Z,163.52
2022-11-10T17:38:25.205Z,164.43
2022-11-10T17:41:16.356Z,162.60
2022-11-10T17:44:01.626Z,167.32
2022-11-10T17:46:46.873Z,168.60
2022-11-10T17:49:32.136Z,155.82
2022-11-10T17:52:18.650Z,163.07
2022-11-10T17:55:03.924Z,166.63
2022-11-10T17:57:49.171Z,167.60
2022-11-10T18:00:34.499Z,175.88
2022-11-10T18:03:22.154Z,157.40
2022-11-10T18:06:07.806Z,148.15
2022-11-10T18:08:52.659Z,164.68
2022-11-10T18:11:38.487Z,171.43
2022-11-10T18:14:23.731Z,174.50
2022-11-10T18:17:09.182Z,161.10
2022-11-10T18:19:54.425Z,161.50
2022-11-10T18:22:40.611Z,170.70
2022-11-10T18:25:26.175Z,150.30
2022-11-10T18:28:14.089Z,140.48
2022-11-10T18:31:05.790Z,141.93
2022-11-10T18:33:53.885Z,146.18
2022-11-10T18:36:39.244Z,138.93
2022-11-10T18:39:24.473Z,139.93
2022-11-10T18:42:10.003Z,144.68
2022-11-10T18:44:55.393Z,144.32
2022-11-10T18:47:40.417Z,140.23
2022-11-10T18:50:25.785Z,134.18
2022-11-10T18:53:10.997Z,133.82
2022-11-10T18:55:56.523Z,129.32
2022-11-10T18:58:42.299Z,128.75
2022-11-10T19:01:28.255Z,139.27
2022-11-10T19:04:14.163Z,143.15
2022-11-10T19:06:59.451Z,133.83
2022-11-10T19:09:44.982Z,126.93
2022-11-10T19:12:31.421Z,136.18
2022-11-10T19:15:16.683Z,132.85
2022-11-10T19:18:02.043Z,131.82
2022-11-10T19:20:47.270Z,137.55
2022-11-10T19:23:32.795Z,134.90
2022-11-10T19:26:22.917Z,148.90
2022-11-10T19:29:08.548Z,137.32
2022-11-10T19:31:54.048Z,140.43
2022-11-10T19:34:39.348Z,132.50
2022-11-10T19:37:24.820Z,135.77
2022-11-10T19:40:10.656Z,136.55
2022-11-10T19:42:55.843Z,134.55
2022-11-10T19:45:42.275Z,135.95
2022-11-10T19:48:27.306Z,140.02
2022-11-10T19:51:14.450Z,129.82
2022-11-10T19:54:01.663Z,139.63
2022-11-10T19:56:46.895Z,139.70
2022-11-10T19:59:32.836Z,133.88
2022-11-10T20:02:18.831Z,135.05
2022-11-10T20:05:13.653Z,136.83
2022-11-10T20:08:10.842Z,136.35
2022-11-10T20:13:45.378Z,131.60
2022-11-10T20:16:30.530Z,134.90
2022-11-10T20:19:15.862Z,140.88
2022-11-10T20:22:01.053Z,129.05
2022-11-10T20:24:51.048Z,143.15
2022-11-10T20:27:36.800Z,132.20
2022-11-10T20:30:23.890Z,128.10
2022-11-10T20:33:09.497Z,128.80
2022-11-10T20:35:55.079Z,136.93
2022-11-10T20:38:40.614Z,137.05
2022-11-10T20:41:28.410Z,128.50
2022-11-10T20:44:13.950Z,134.35
2022-11-10T20:46:59.404Z,139.63
2022-11-10T20:49:44.793Z,133.48
2022-11-10T20:52:34.080Z,134.30
2022-11-10T20:55:43.645Z,136.43
2022-11-10T20:58:24.240Z,134.02
2022-11-10T21:01:12.862Z,138.60
2022-11-10T21:03:58.835Z,144.93
2022-11-10T21:06:44.536Z,142.15
2022-11-10T21:09:30.059Z,132.60
2022-11-10T21:12:33.748Z,134.50
2022-11-10T21:15:20.423Z,137.55
2022-11-10T21:20:51.521Z,131.43
2022-11-10T21:23:36.981Z,131.85
2022-11-10T21:26:22.292Z,143.35
2022-11-10T21:29:11.598Z,149.48
2022-11-10T21:31:56.895Z,143.43
2022-11-10T21:34:42.062Z,147.10
2022-11-10T21:37:27.345Z,147.85
2022-11-10T21:40:12.945Z,153.10
2022-11-10T21:42:58.244Z,146.98
2022-11-10T21:45:43.184Z,134.45
2022-11-10T21:48:28.339Z,141.95
2022-11-10T21:51:14.399Z,147.48
2022-11-10T21:53:59.445Z,144.00
2022-11-10T21:56:44.756Z,152.90
2022-11-10T21:59:30.151Z,140.00
2022-11-10T22:02:15.547Z,143.98
2022-11-10T22:05:01.029Z,129.70
2022-11-10T22:07:46.401Z,133.07
2022-11-10T22:10:50.115Z,133.27
2022-11-10T22:13:53.880Z,126.38
2022-11-10T22:17:03.551Z,133.07
2022-11-10T22:19:48.991Z,122.00
2022-11-10T22:22:34.364Z,143.20
2022-11-10T22:25:19.794Z,127.20
2022-11-10T22:28:05.806Z,135.10
2022-11-10T22:30:50.800Z,140.77
2022-11-10T22:33:37.811Z,127.38
2022-11-10T22:36:22.971Z,124.60
2022-11-10T22:39:08.957Z,143.55
2022-11-10T22:42:12.847Z,133.25
2022-11-10T22:44:58.234Z,125.28
2022-11-10T22:48:02.041Z,131.27
2022-11-10T22:50:57.073Z,131.93
2022-11-10T22:53:42.309Z,125.22
2022-11-10T22:56:28.615Z,122.60
2022-11-10T22:59:15.045Z,116.75
2022-11-10T23:02:00.477Z,121.65
2022-11-10T23:04:45.615Z,123.97
2022-11-10T23:07:31.085Z,135.57
2022-11-10T23:10:16.378Z,124.38
2022-11-10T23:13:01.663Z,124.88
2022-11-10T23:15:52.036Z,135.10
2022-11-10T23:18:39.538Z,129.77
2022-11-10T23:21:27.704Z,136.73
2022-11-10T23:24:13.590Z,140.15
2022-11-10T23:26:59.132Z,120.85
2022-11-10T23:29:44.493Z,127.40
2022-11-10T23:32:29.782Z,132.85
2022-11-10T23:35:15.095Z,119.40
2022-11-10T23:38:00.614Z,132.32
2022-11-10T23:40:46.087Z,131.10
2022-11-10T23:43:31.794Z,127.95
2022-11-10T23:46:17.528Z,127.63
2022-11-10T23:49:02.910Z,129.17
2022-11-10T23:51:48.059Z,122.85
2022-11-10T23:54:33.389Z,123.38
2022-11-10T23:57:18.661Z,135.77
